ADDS METAR Data INFO
IDs: Format: Raw Decoded Include TAF

Data at: 1923 UTC 23 Apr 2018

KUCY 231915Z AUTO 20011KT 10SM BKN014 OVC019 16/14 A2988 RMK A01
KUCY 231855Z AUTO 21009KT 10SM BKN013 BKN019 OVC100 17/15 A2988 RMK A01
KUCY 231835Z AUTO 20009KT 10SM SCT011 SCT100 16/14 A2988 RMK A01
KUCY 231815Z AUTO 21008G14KT 9SM FEW029 SCT048 SCT100 16/14 A2987 RMK A01
KUCY 231755Z AUTO 20008KT 10SM FEW010 FEW017 BKN027 16/14 A2988 RMK A01 P0001
KUCY 231735Z AUTO 20008G14KT 5SM BR SCT011 BKN019 BKN024 15/14 A2988 RMK A01
KUCY 231715Z AUTO 19011KT 6SM BR BKN008 BKN015 15/14 A2988 RMK A01
KUCY 231655Z AUTO 18008KT 2SM BR OVC007 15/14 A2988 RMK A01 P0002
KUCY 231635Z AUTO 16009KT 1 3/4SM BR OVC008 15/14 A2988 RMK A01 VIS 1 1/4V2 1/2
KUCY 231615Z AUTO 17008KT 3SM BR SCT008 BKN013 BKN021 15/14 A2988 RMK A01
KUCY 231555Z AUTO 17009G14KT 2SM BR SCT010 OVC015 15/14 A2987 RMK A01
KUCY 231535Z AUTO 16009KT 10SM BKN010 BKN013 OVC017 15/14 A2986 RMK A01
KUCY 231515Z AUTO 16010KT 7SM SCT008 OVC014 15/14 A2986 RMK A01
KUCY 231455Z AUTO 18010KT 10SM BKN008 OVC014 15/14 A2985 RMK A01 P0002
KUCY 231435Z AUTO 17009KT 2 1/2SM BR BKN006 BKN009 BKN013 15/14 A2984 RMK A01 VIS 1 1/2V5
KUCY 231415Z AUTO 15008KT 3SM BR BKN007 BKN012 BKN021 15/14 A2984 RMK A01
KUCY 231355Z AUTO 14007KT 9SM FEW008 BKN013 BKN019 15/14 A2984 RMK A01 P0004
KUCY 231335Z AUTO 15008KT 9SM SCT007 BKN011 BKN016 15/14 A2983 RMK A01
KUCY 231315Z AUTO 15007KT 7SM BKN009 BKN014 OVC022 15/14 A2982 RMK A01
KUCY 231255Z AUTO 15008KT 4SM BR BKN008 BKN013 OVC037 14/14 A2982 RMK A01 P0016
KUCY 231235Z AUTO 16007KT 2 1/2SM BR BKN006 OVC010 14/14 A2981 RMK A01
KUCY 231215Z AUTO 16008KT 2SM BR BKN007 OVC011 14/14 A2981 RMK A01
KUCY 231155Z AUTO 16009KT 3SM BR OVC007 14/14 A2980 RMK A01 P0003
KUCY 231135Z AUTO 17009KT 7SM OVC006 14/14 A2979 RMK A01
KUCY 231115Z AUTO 17009KT 8SM OVC005 14/14 A2977 RMK A01
KUCY 231055Z AUTO 19011KT 8SM OVC004 14/14 A2976 RMK A01 P0001
KUCY 231035Z AUTO 19010KT 3SM BR OVC004 14/14 A2975 RMK A01
KUCY 231015Z AUTO 19011KT 4SM BR OVC004 14/14 A2974 RMK A01
KUCY 230955Z AUTO 20009KT 2 1/2SM BR OVC004 14/14 A2973 RMK A01
KUCY 230935Z AUTO 20005KT 1 3/4SM BR BKN004 OVC008 14/14 A2972 RMK A01
KUCY 230915Z AUTO 00000KT 5SM BR FEW005 BKN009 OVC021 14/14 A2971 RMK A01
KUCY 230855Z AUTO 04005KT 2SM BR FEW005 BKN009 OVC023 14/14 A2971 RMK A01 P0011
KUCY 230835Z AUTO 03007KT 2SM BR SCT005 BKN014 OVC027 14/14 A2971 RMK A01
KUCY 230815Z AUTO 04008KT 1 1/2SM BR SCT004 OVC008 14/14 A2971 RMK A01
KUCY 230755Z AUTO 04011KT 2SM BR FEW008 BKN013 OVC029 14/14 A2971 RMK A01 P0013
KUCY 230735Z AUTO 04010KT 3SM BR FEW008 BKN030 OVC041 14/13 A2972 RMK A01
KUCY 230715Z AUTO 05011G17KT 4SM BR BKN010 BKN042 OVC050 14/13 A2973 RMK A01
KUCY 230655Z AUTO 05009G16KT 5SM BR BKN011 OVC050 14/13 A2974 RMK A01 P0010
KUCY 230635Z AUTO 06010G16KT 5SM BR OVC010 14/13 A2975 RMK A01
KUCY 230615Z AUTO 05010KT 5SM BR BKN010 BKN014 OVC019 14/14 A2976 RMK A01
KUCY 230555Z AUTO 04012KT 5SM BR BKN009 BKN014 OVC020 14/14 A2977 RMK A01 P0016
KUCY 230535Z AUTO 05009KT 3SM BR SCT008 BKN012 OVC017 14/14 A2979 RMK A01
KUCY 230515Z AUTO 05007KT 4SM BR FEW008 BKN012 OVC032 14/14 A2981 RMK A01
KUCY 230455Z AUTO 05008KT 3SM BR BKN010 BKN032 OVC046 14/14 A2982 RMK A01 P0008
KUCY 230435Z AUTO 05011KT 5SM BR BKN009 BKN031 OVC050 14/14 A2983 RMK A01
KUCY 230415Z AUTO 05009KT 5SM BR BKN009 BKN015 OVC050 14/14 A2984 RMK A01
KUCY 230355Z AUTO 05009KT 3SM BR BKN010 BKN015 OVC020 15/14 A2985 RMK A01 P0012
KUCY 230335Z AUTO 05008KT 5SM BR SCT008 BKN011 OVC050 15/14 A2987 RMK A01
KUCY 230315Z AUTO 06007G13KT 6SM BR BKN010 OVC043 15/14 A2988 RMK A01
KUCY 230255Z AUTO 06007KT 5SM BR BKN009 OVC013 15/14 A2989 RMK A01 P0010
KUCY 230235Z AUTO 07008KT 5SM BR BKN009 OVC013 15/14 A2989 RMK A01
KUCY 230215Z AUTO 07009KT 9SM OVC012 15/14 A2990 RMK A01
KUCY 230155Z AUTO VRB05G11KT 6SM BR SCT013 BKN020 OVC055 15/14 A2990 RMK A01 P0004
KUCY 230135Z AUTO 07007KT 6SM BR FEW011 SCT017 BKN022 15/14 A2990 RMK A01
KUCY 230115Z AUTO 08008KT 9SM SCT008 BKN013 OVC070 15/14 A2990 RMK A01
KUCY 230055Z AUTO 07006KT 5SM BR SCT009 BKN014 OVC030 15/14 A2990 RMK A01 P0016
KUCY 230035Z AUTO 06007KT 4SM BR SCT009 BKN016 OVC080 15/14 A2990 RMK A01
KUCY 230015Z AUTO 07006G12KT 3SM BR BKN009 BKN014 OVC055 15/14 A2990 RMK A01
KUCY 222355Z AUTO 07007G12KT 3SM BR OVC010 15/14 A2990 RMK A01 P0016
KUCY 222335Z AUTO 06005G11KT 4SM BR BKN010 OVC014 15/14 A2990 RMK A01
KUCY 222315Z AUTO VRB05KT 4SM BR BKN010 OVC014 15/14 A2991 RMK A01
KUCY 222255Z AUTO VRB03G10KT 3SM BR SCT010 BKN015 OVC029 15/14 A2992 RMK A01 P0026
KUCY 222235Z AUTO 04007KT 2SM BR FEW003 SCT024 BKN029 15/14 A2992 RMK A01
KUCY 222215Z AUTO 06008KT 2SM BR FEW003 SCT027 BKN035 15/14 A2993 RMK A01
KUCY 222155Z AUTO 08010G16KT 1 1/2SM BR SCT003 SCT010 BKN027 15/14 A2993 RMK A01 P0027
KUCY 222135Z AUTO 09009KT 2 1/2SM BR SCT006 SCT015 BKN035 15/14 A2993 RMK A01
KUCY 222115Z AUTO 09008G14KT 2 1/2SM BR SCT009 SCT013 BKN026 15/14 A2993 RMK A01
KUCY 222055Z AUTO 08009KT 3SM BR SCT010 BKN015 BKN023 15/14 A2993 RMK A01 P0007
KUCY 222035Z AUTO 00000G11KT 5SM BR SCT009 BKN018 OVC048 15/14 A2994 RMK A01
KUCY 222015Z AUTO 7.88000008G15KT 3SM BR FEW009 SCT019 BKN033 15/14 A2994 RMK A01
KUCY 221955Z AUTO 08008G13KT 4SM BR BKN009 OVC037 15/14 A2995 RMK A01 P0005
KUCY 221935Z AUTO 08008G13KT 060V120 6SM BR BKN009 BKN014 OVC034 15/14 A2996 RMK A01
KUCY 221915Z AUTO 09010KT 5SM BR SCT009 BKN014 BKN023 15/14 A2996 RMK A01
KUCY 221855Z AUTO 07008KT 3SM BR BKN007 BKN011 14/13 A2997 RMK A01 P0012
KUCY 221835Z AUTO 07007KT 3SM BR OVC008 14/13 A2998 RMK A01
KUCY 221815Z AUTO 08005KT 4SM BR BKN009 BKN013 14/13 A2999 RMK A01
KUCY 221755Z AUTO 07007KT 3SM BR BKN008 BKN015 13/13 A3000 RMK A01 P0031
KUCY 221735Z AUTO 07006KT 2 1/2SM BR BKN008 BKN014 OVC042 13/13 A3001 RMK A01
KUCY 221715Z AUTO 06007G13KT 1 1/2SM BR BKN005 OVC009 13/12 A3001 RMK A01
KUCY 221655Z AUTO 07009G14KT 1 1/4SM BR SCT004 BKN009 OVC025 13/12 A3002 RMK A01 P0022
KUCY 221635Z AUTO 06011KT 3SM BR SCT008 BKN018 BKN043 13/12 A3001 RMK A01
KUCY 221615Z AUTO 06010KT 3SM BR SCT007 SCT017 BKN038 13/12 A3003 RMK A01
KUCY 221555Z AUTO 09006G11KT 3SM BR SCT018 BKN029 BKN038 13/12 A3006 RMK A01 P0017
KUCY 221535Z AUTO 07006KT 3SM BR SCT019 BKN031 BKN038 12/12 A3006 RMK A01
KUCY 221515Z AUTO 06005G12KT 4SM BR FEW020 SCT034 BKN065 12/11 A3006 RMK A01
KUCY 221455Z AUTO 06006G11KT 4SM BR FEW036 SCT070 12/11 A3006 RMK A01 P0008
KUCY 221435Z AUTO 06007KT 4SM BR FEW034 SCT039 BKN050 12/11 A3006 RMK A01
KUCY 221415Z AUTO 07008G13KT 3SM BR SCT029 SCT042 BKN050 12/10 A3007 RMK A01
KUCY 221355Z AUTO 05007KT 2SM BR FEW004 BKN027 OVC044 11/10 A3008 RMK A01 P0017
KUCY 221335Z AUTO 00000KT 4SM BR BKN033 BKN039 BKN046 12/10 A3010 RMK A01
KUCY 221315Z AUTO 07003KT 9SM FEW031 FEW060 SCT095 12/10 A3009 RMK A01
KUCY 221255Z AUTO VRB03KT 10SM SCT090 12/10 A3008 RMK A01 P0001
KUCY 221235Z AUTO 06009G14KT 9SM FEW060 FEW090 12/10 A3006 RMK A01
KUCY 221215Z AUTO 05010KT 6SM BR FEW041 SCT060 SCT090 12/10 A3007 RMK A01
KUCY 221155Z AUTO 05008KT 10SM FEW039 FEW055 SCT065 12/10 A3009 RMK A01 P0002
KUCY 221135Z AUTO 05006KT 10SM FEW034 BKN065 OVC085 12/10 A3010 RMK A01
KUCY 221115Z AUTO 06006KT 8SM BKN033 BKN060 OVC085 12/10 A3010 RMK A01
KUCY 221055Z AUTO 06005KT 8SM SCT035 BKN070 OVC085 12/10 A3009 RMK A01 P0003
KUCY 221035Z AUTO 05007KT 9SM SCT038 SCT055 OVC070 12/10 A3009 RMK A01
KUCY 221015Z AUTO 06007KT 10SM FEW031 SCT040 BKN050 12/10 A3010 RMK A01
KUCY 220955Z AUTO 06009KT 5SM HZ SCT033 BKN060 OVC070 12/10 A3010 RMK A01 P0005
KUCY 220935Z AUTO 07007KT 8SM BKN060 OVC075 13/10 A3011 RMK A01
KUCY 220915Z AUTO 08005KT 6SM HZ BKN060 OVC075 13/10 A3011 RMK A01
KUCY 220855Z AUTO 08003KT 7SM FEW032 SCT039 OVC070 13/10 A3012 RMK A01 P0002
KUCY 220835Z AUTO 07004KT 6SM HZ FEW031 SCT037 OVC070 13/10 A3011 RMK A01
KUCY 220815Z AUTO 05005KT 9SM FEW032 SCT065 OVC075 13/10 A3011 RMK A01
KUCY 220755Z AUTO 00000KT 7SM FEW033 BKN065 OVC075 13/11 A3011 RMK A01 P0002
KUCY 220735Z AUTO 05003KT 10SM FEW031 OVC075 14/09 A3011 RMK A01